sensor_id;sensor_type;location;lat;lon;timestamp;pressure;altitude;pressure_sealevel;temperature;humidity
86206;BME280;76857;48.140;11.594;2024-03-08T05:01:01;95543.69;;;-0.21;84.71
86206;BME280;76857;48.140;11.594;2024-03-08T05:03:27;95545.28;;;-0.12;84.64
86206;BME280;76857;48.140;11.594;2024-03-08T05:05:52;95542.72;;;-0.20;84.81
86206;BME280;76857;48.140;11.594;2024-03-08T05:08:18;95552.75;;;-0.23;85.57
86206;BME280;76857;48.140;11.594;2024-03-08T05:10:44;95552.22;;;-0.19;84.78
86206;BME280;76857;48.140;11.594;2024-03-08T05:13:10;95545.41;;;-0.28;84.96
86206;BME280;76857;48.140;11.594;2024-03-08T05:15:36;95541.31;;;-0.30;84.68
86206;BME280;76857;48.140;11.594;2024-03-08T05:18:02;95547.25;;;-0.36;85.31
86206;BME280;76857;48.140;11.594;2024-03-08T05:20:27;95544.63;;;-0.36;85.71
86206;BME280;76857;48.140;11.594;2024-03-08T05:22:53;95545.16;;;-0.41;85.93
86206;BME280;76857;48.140;11.594;2024-03-08T05:25:18;95540.75;;;-0.40;85.42
86206;BME280;76857;48.140;11.594;2024-03-08T05:27:44;95535.50;;;-0.40;85.78
86206;BME280;76857;48.140;11.594;2024-03-08T05:30:09;95534.00;;;-0.35;85.32
86206;BME280;76857;48.140;11.594;2024-03-08T05:32:43;95537.59;;;-0.36;84.96
86206;BME280;76857;48.140;11.594;2024-03-08T05:35:11;95535.09;;;-0.29;85.31
86206;BME280;76857;48.140;11.594;2024-03-08T05:37:37;95533.72;;;-0.40;85.08
86206;BME280;76857;48.140;11.594;2024-03-08T05:40:04;95526.28;;;-0.36;85.45
86206;BME280;76857;48.140;11.594;2024-03-08T05:42:34;95533.63;;;-0.32;84.96
86206;BME280;76857;48.140;11.594;2024-03-08T05:45:00;95530.94;;;-0.24;84.12
86206;BME280;76857;48.140;11.594;2024-03-08T05:47:25;95525.25;;;-0.27;84.50
86206;BME280;76857;48.140;11.594;2024-03-08T05:49:51;95524.78;;;-0.31;85.11
86206;BME280;76857;48.140;11.594;2024-03-08T05:52:18;95529.47;;;-0.26;84.27
86206;BME280;76857;48.140;11.594;2024-03-08T05:54:44;95531.41;;;-0.20;84.74
86206;BME280;76857;48.140;11.594;2024-03-08T05:57:12;95527.25;;;-0.15;83.74
86206;BME280;76857;48.140;11.594;2024-03-08T05:59:39;95529.44;;;-0.18;84.06
86206;BME280;76857;48.140;11.594;2024-03-08T06:02:05;95526.44;;;-0.15;84.13
86206;BME280;76857;48.140;11.594;2024-03-08T06:04:30;95523.66;;;-0.14;84.41
86206;BME280;76857;48.140;11.594;2024-03-08T06:06:56;95525.19;;;-0.05;83.54
86206;BME280;76857;48.140;11.594;2024-03-08T06:09:23;95514.97;;;-0.14;83.82
86206;BME280;76857;48.140;11.594;2024-03-08T06:11:50;95512.72;;;-0.17;84.35
86206;BME280;76857;48.140;11.594;2024-03-08T06:14:15;95521.09;;;-0.22;85.09
86206;BME280;76857;48.140;11.594;2024-03-08T06:16:44;95525.72;;;-0.09;84.26
86206;BME280;76857;48.140;11.594;2024-03-08T06:19:10;95520.31;;;-0.08;83.80
86206;BME280;76857;48.140;11.594;2024-03-08T06:21:37;95524.50;;;0.02;83.23
86206;BME280;76857;48.140;11.594;2024-03-08T06:24:02;95517.88;;;0.06;83.67
86206;BME280;76857;48.140;11.594;2024-03-08T06:26:28;95520.06;;;0.02;83.84
86206;BME280;76857;48.140;11.594;2024-03-08T06:28:54;95526.06;;;0.11;83.64
86206;BME280;76857;48.140;11.594;2024-03-08T06:31:20;95524.69;;;0.15;83.11
86206;BME280;76857;48.140;11.594;2024-03-08T06:33:45;95526.06;;;0.11;83.16
86206;BME280;76857;48.140;11.594;2024-03-08T06:36:11;95527.38;;;0.07;83.43
86206;BME280;76857;48.140;11.594;2024-03-08T06:38:38;95527.78;;;0.33;82.53
86206;BME280;76857;48.140;11.594;2024-03-08T06:41:09;95525.09;;;0.26;82.02
86206;BME280;76857;48.140;11.594;2024-03-08T06:43:34;95530.22;;;0.34;81.74
86206;BME280;76857;48.140;11.594;2024-03-08T06:46:00;95521.81;;;0.39;81.81
86206;BME280;76857;48.140;11.594;2024-03-08T06:48:25;95522.19;;;0.51;81.05
86206;BME280;76857;48.140;11.594;2024-03-08T06:50:50;95525.53;;;0.30;82.09
86206;BME280;76857;48.140;11.594;2024-03-08T06:53:16;95529.25;;;0.35;81.81
86206;BME280;76857;48.140;11.594;2024-03-08T06:55:44;95528.63;;;0.48;81.87
86206;BME280;76857;48.140;11.594;2024-03-08T06:58:10;95530.97;;;0.43;81.54
86206;BME280;76857;48.140;11.594;2024-03-08T07:00:38;95527.97;;;0.31;81.64
86206;BME280;76857;48.140;11.594;2024-03-08T07:03:07;95529.31;;;0.57;81.13
86206;BME280;76857;48.140;11.594;2024-03-08T07:05:33;95523.63;;;0.68;80.57
86206;BME280;76857;48.140;11.594;2024-03-08T07:07:58;95517.13;;;0.64;81.03
86206;BME280;76857;48.140;11.594;2024-03-08T07:10:24;95522.94;;;0.95;79.97
86206;BME280;76857;48.140;11.594;2024-03-08T07:12:53;95524.38;;;1.12;78.41
86206;BME280;76857;48.140;11.594;2024-03-08T07:15:20;95526.59;;;1.15;78.46
86206;BME280;76857;48.140;11.594;2024-03-08T07:17:46;95526.59;;;1.15;78.34
86206;BME280;76857;48.140;11.594;2024-03-08T07:20:15;95529.91;;;1.03;78.67
86206;BME280;76857;48.140;11.594;2024-03-08T07:22:47;95520.75;;;1.13;78.25
86206;BME280;76857;48.140;11.594;2024-03-08T07:25:13;95514.03;;;1.47;77.00
86206;BME280;76857;48.140;11.594;2024-03-08T07:27:52;95509.88;;;1.59;76.93
86206;BME280;76857;48.140;11.594;2024-03-08T07:30:18;95515.25;;;1.93;75.66
86206;BME280;76857;48.140;11.594;2024-03-08T07:33:02;95506.44;;;2.07;73.96
86206;BME280;76857;48.140;11.594;2024-03-08T07:35:28;95506.03;;;1.83;74.06
86206;BME280;76857;48.140;11.594;2024-03-08T07:37:54;95508.25;;;1.79;74.57
86206;BME280;76857;48.140;11.594;2024-03-08T07:40:23;95514.25;;;1.73;74.70
86206;BME280;76857;48.140;11.594;2024-03-08T07:42:51;95511.06;;;1.78;74.92
86206;BME280;76857;48.140;11.594;2024-03-08T07:45:17;95508.00;;;1.74;74.94
86206;BME280;76857;48.140;11.594;2024-03-08T07:47:43;95506.19;;;2.30;72.60
86206;BME280;76857;48.140;11.594;2024-03-08T07:50:09;95504.28;;;2.86;70.84
86206;BME280;76857;48.140;11.594;2024-03-08T07:52:35;95502.25;;;3.43;69.38
86206;BME280;76857;48.140;11.594;2024-03-08T07:55:02;95497.63;;;3.64;68.16
86206;BME280;76857;48.140;11.594;2024-03-08T07:57:29;95505.63;;;3.23;68.64
86206;BME280;76857;48.140;11.594;2024-03-08T07:59:55;95498.63;;;2.96;69.99
86206;BME280;76857;48.140;11.594;2024-03-08T08:02:21;95486.00;;;3.32;69.27
86206;BME280;76857;48.140;11.594;2024-03-08T08:04:46;95492.13;;;3.53;67.71
86206;BME280;76857;48.140;11.594;2024-03-08T08:07:12;95485.41;;;3.50;67.38
86206;BME280;76857;48.140;11.594;2024-03-08T08:09:37;95491.72;;;3.82;66.93
86206;BME280;76857;48.140;11.594;2024-03-08T08:12:03;95487.69;;;4.19;66.23
86206;BME280;76857;48.140;11.594;2024-03-08T08:14:29;95476.25;;;5.09;62.22
86206;BME280;76857;48.140;11.594;2024-03-08T08:16:56;95477.88;;;5.10;61.73
86206;BME280;76857;48.140;11.594;2024-03-08T08:19:22;95478.63;;;5.93;60.28
86206;BME280;76857;48.140;11.594;2024-03-08T08:21:48;95479.13;;;6.88;55.60
86206;BME280;76857;48.140;11.594;2024-03-08T08:24:14;95481.78;;;7.06;55.55
86206;BME280;76857;48.140;11.594;2024-03-08T08:26:40;95482.03;;;7.52;53.57
86206;BME280;76857;48.140;11.594;2024-03-08T08:29:07;95475.25;;;7.68;52.38
86206;BME280;76857;48.140;11.594;2024-03-08T08:31:32;95471.84;;;8.03;51.78
86206;BME280;76857;48.140;11.594;2024-03-08T08:33:58;95472.00;;;8.19;50.69
86206;BME280;76857;48.140;11.594;2024-03-08T08:36:25;95473.09;;;8.53;50.88
86206;BME280;76857;48.140;11.594;2024-03-08T08:38:50;95468.16;;;9.08;49.05
86206;BME280;76857;48.140;11.594;2024-03-08T08:41:19;95461.31;;;8.49;50.21
86206;BME280;76857;48.140;11.594;2024-03-08T08:43:44;95458.03;;;8.94;49.42
86206;BME280;76857;48.140;11.594;2024-03-08T08:46:10;95449.41;;;9.15;48.02
86206;BME280;76857;48.140;11.594;2024-03-08T08:48:39;95446.16;;;8.61;50.04
86206;BME280;76857;48.140;11.594;2024-03-08T08:51:11;95446.53;;;9.05;49.65
86206;BME280;76857;48.140;11.594;2024-03-08T08:53:41;95449.47;;;8.92;48.16
86206;BME280;76857;48.140;11.594;2024-03-08T08:56:11;95440.13;;;9.17;48.45
86206;BME280;76857;48.140;11.594;2024-03-08T08:58:39;95447.72;;;8.86;47.85
86206;BME280;76857;48.140;11.594;2024-03-08T09:01:05;95441.06;;;8.36;49.44
86206;BME280;76857;48.140;11.594;2024-03-08T09:03:33;95446.28;;;8.66;49.21
86206;BME280;76857;48.140;11.594;2024-03-08T09:06:00;95435.81;;;8.88;48.50
86206;BME280;76857;48.140;11.594;2024-03-08T09:08:25;95438.31;;;8.95;48.87
86206;BME280;76857;48.140;11.594;2024-03-08T09:10:51;95425.78;;;9.47;47.44
86206;BME280;76857;48.140;11.594;2024-03-08T09:13:16;95428.88;;;9.27;47.59
86206;BME280;76857;48.140;11.594;2024-03-08T09:15:42;95430.94;;;9.82;48.17
86206;BME280;76857;48.140;11.594;2024-03-08T09:18:07;95427.59;;;9.58;46.44
86206;BME280;76857;48.140;11.594;2024-03-08T09:20:34;95420.53;;;9.52;48.83
86206;BME280;76857;48.140;11.594;2024-03-08T09:22:59;95419.44;;;9.64;47.68
86206;BME280;76857;48.140;11.594;2024-03-08T09:25:25;95409.34;;;9.21;47.55
86206;BME280;76857;48.140;11.594;2024-03-08T09:27:51;95405.00;;;9.04;49.14
86206;BME280;76857;48.140;11.594;2024-03-08T09:30:16;95395.97;;;8.65;49.45
86206;BME280;76857;48.140;11.594;2024-03-08T09:32:43;95409.03;;;8.66;50.97
86206;BME280;76857;48.140;11.594;2024-03-08T09:35:09;95402.59;;;8.91;50.28
86206;BME280;76857;48.140;11.594;2024-03-08T09:37:34;95393.97;;;9.12;49.27
86206;BME280;76857;48.140;11.594;2024-03-08T09:40:00;95393.06;;;9.06;49.35
86206;BME280;76857;48.140;11.594;2024-03-08T09:42:29;95401.16;;;8.71;49.17
86206;BME280;76857;48.140;11.594;2024-03-08T09:44:55;95401.38;;;8.70;49.43
86206;BME280;76857;48.140;11.594;2024-03-08T09:47:22;95395.13;;;8.76;49.80
86206;BME280;76857;48.140;11.594;2024-03-08T09:49:49;95398.63;;;8.65;50.07
86206;BME280;76857;48.140;11.594;2024-03-08T09:52:15;95388.91;;;8.59;50.82
86206;BME280;76857;48.140;11.594;2024-03-08T09:54:41;95395.63;;;8.61;50.44
86206;BME280;76857;48.140;11.594;2024-03-08T09:57:10;95386.00;;;8.72;51.33
86206;BME280;76857;48.140;11.594;2024-03-08T09:59:35;95392.63;;;8.98;49.54
86206;BME280;76857;48.140;11.594;2024-03-08T10:02:01;95399.09;;;8.62;50.34
86206;BME280;76857;48.140;11.594;2024-03-08T10:04:28;95397.00;;;8.64;50.43
86206;BME280;76857;48.140;11.594;2024-03-08T10:06:57;95393.28;;;8.76;51.25
86206;BME280;76857;48.140;11.594;2024-03-08T10:09:27;95385.25;;;9.00;50.94
86206;BME280;76857;48.140;11.594;2024-03-08T10:11:59;95388.50;;;9.18;48.64
86206;BME280;76857;48.140;11.594;2024-03-08T10:14:27;95387.28;;;9.09;49.46
86206;BME280;76857;48.140;11.594;2024-03-08T10:16:53;95370.19;;;9.22;49.39
86206;BME280;76857;48.140;11.594;2024-03-08T10:19:19;95367.00;;;9.20;49.28
86206;BME280;76857;48.140;11.594;2024-03-08T10:21:52;95375.25;;;9.07;48.87
86206;BME280;76857;48.140;11.594;2024-03-08T10:24:19;95368.38;;;8.94;49.64
86206;BME280;76857;48.140;11.594;2024-03-08T10:26:44;95362.31;;;8.59;50.94
86206;BME280;76857;48.140;11.594;2024-03-08T10:29:10;95352.72;;;8.98;49.75
86206;BME280;76857;48.140;11.594;2024-03-08T10:31:43;95356.34;;;8.92;49.36
86206;BME280;76857;48.140;11.594;2024-03-08T10:34:09;95361.47;;;9.10;49.65
86206;BME280;76857;48.140;11.594;2024-03-08T10:36:35;95350.88;;;9.27;49.36
86206;BME280;76857;48.140;11.594;2024-03-08T10:39:20;95350.97;;;9.03;49.48
86206;BME280;76857;48.140;11.594;2024-03-08T10:41:57;95350.06;;;8.98;49.30
86206;BME280;76857;48.140;11.594;2024-03-08T10:49:25;95347.56;;;9.36;48.85
86206;BME280;76857;48.140;11.594;2024-03-08T10:51:56;95334.19;;;9.31;48.42
86206;BME280;76857;48.140;11.594;2024-03-08T10:54:23;95333.59;;;9.29;48.40
86206;BME280;76857;48.140;11.594;2024-03-08T10:56:51;95341.59;;;9.29;48.86
86206;BME280;76857;48.140;11.594;2024-03-08T10:59:17;95340.94;;;9.39;48.20
86206;BME280;76857;48.140;11.594;2024-03-08T11:01:44;95341.34;;;9.31;48.63
86206;BME280;76857;48.140;11.594;2024-03-08T11:04:10;95325.63;;;9.29;48.48
86206;BME280;76857;48.140;11.594;2024-03-08T11:09:29;95339.38;;;9.09;48.94
86206;BME280;76857;48.140;11.594;2024-03-08T11:14:49;95307.84;;;9.18;49.51
86206;BME280;76857;48.140;11.594;2024-03-08T11:17:20;95306.88;;;9.07;49.32
86206;BME280;76857;48.140;11.594;2024-03-08T11:19:49;95302.97;;;9.27;48.82
86206;BME280;76857;48.140;11.594;2024-03-08T11:22:22;95298.00;;;9.18;49.38
86206;BME280;76857;48.140;11.594;2024-03-08T11:24:49;95295.94;;;9.20;48.93
86206;BME280;76857;48.140;11.594;2024-03-08T11:27:15;95291.25;;;9.11;48.86
86206;BME280;76857;48.140;11.594;2024-03-08T11:29:40;95296.44;;;9.06;49.23
86206;BME280;76857;48.140;11.594;2024-03-08T11:32:16;95302.88;;;9.21;48.52
86206;BME280;76857;48.140;11.594;2024-03-08T11:34:45;95288.00;;;9.09;49.15
86206;BME280;76857;48.140;11.594;2024-03-08T11:37:15;95288.97;;;9.03;48.98
86206;BME280;76857;48.140;11.594;2024-03-08T11:39:50;95281.56;;;9.05;49.22
86206;BME280;76857;48.140;11.594;2024-03-08T11:42:17;95272.09;;;8.97;49.91
86206;BME280;76857;48.140;11.594;2024-03-08T11:44:46;95272.44;;;9.17;50.11
86206;BME280;76857;48.140;11.594;2024-03-08T11:47:13;95276.06;;;9.28;50.33
86206;BME280;76857;48.140;11.594;2024-03-08T11:49:40;95285.34;;;9.09;49.04
86206;BME280;76857;48.140;11.594;2024-03-08T11:52:12;95279.22;;;9.08;48.96
86206;BME280;76857;48.140;11.594;2024-03-08T11:54:38;95272.63;;;9.11;49.03
86206;BME280;76857;48.140;11.594;2024-03-08T11:57:04;95265.50;;;9.16;49.74
86206;BME280;76857;48.140;11.594;2024-03-08T11:59:30;95268.88;;;9.12;49.42
86206;BME280;76857;48.140;11.594;2024-03-08T12:02:05;95264.50;;;9.06;50.44
86206;BME280;76857;48.140;11.594;2024-03-08T12:04:32;95261.84;;;9.06;49.00
86206;BME280;76857;48.140;11.594;2024-03-08T12:07:02;95252.44;;;8.98;53.54
86206;BME280;76857;48.140;11.594;2024-03-08T12:09:30;95250.09;;;9.02;49.59
86206;BME280;76857;48.140;11.594;2024-03-08T12:11:58;95240.41;;;9.12;50.26
86206;BME280;76857;48.140;11.594;2024-03-08T12:14:24;95250.69;;;9.20;50.07
86206;BME280;76857;48.140;11.594;2024-03-08T12:16:51;95238.78;;;9.11;51.06
86206;BME280;76857;48.140;11.594;2024-03-08T12:19:17;95238.78;;;9.11;50.56
86206;BME280;76857;48.140;11.594;2024-03-08T12:21:43;95244.31;;;9.05;50.30
86206;BME280;76857;48.140;11.594;2024-03-08T12:24:15;95238.47;;;8.91;51.57
86206;BME280;76857;48.140;11.594;2024-03-08T12:26:45;95227.78;;;8.74;51.83
86206;BME280;76857;48.140;11.594;2024-03-08T12:31:52;95218.47;;;8.89;52.61
86206;BME280;76857;48.140;11.594;2024-03-08T12:34:18;95212.66;;;8.75;51.84
86206;BME280;76857;48.140;11.594;2024-03-08T12:36:45;95215.53;;;8.73;51.99
86206;BME280;76857;48.140;11.594;2024-03-08T12:39:16;95203.94;;;8.79;52.56
86206;BME280;76857;48.140;11.594;2024-03-08T12:41:42;95214.84;;;8.78;52.13
86206;BME280;76857;48.140;11.594;2024-03-08T12:44:08;95210.88;;;8.80;52.54
86206;BME280;76857;48.140;11.594;2024-03-08T12:46:37;95204.66;;;8.75;52.70
86206;BME280;76857;48.140;11.594;2024-03-08T12:49:09;95193.78;;;8.60;52.70
86206;BME280;76857;48.140;11.594;2024-03-08T12:51:39;95184.56;;;8.51;53.35
86206;BME280;76857;48.140;11.594;2024-03-08T12:54:05;95187.69;;;8.48;53.66
86206;BME280;76857;48.140;11.594;2024-03-08T12:56:33;95196.97;;;8.45;53.45
86206;BME280;76857;48.140;11.594;2024-03-08T12:59:03;95198.81;;;8.45;53.58
86206;BME280;76857;48.140;11.594;2024-03-08T13:01:30;95183.31;;;8.42;53.64
86206;BME280;76857;48.140;11.594;2024-03-08T13:03:59;95173.53;;;8.30;53.79
86206;BME280;76857;48.140;11.594;2024-03-08T13:06:29;95174.81;;;8.28;53.53
86206;BME280;76857;48.140;11.594;2024-03-08T13:08:56;95171.47;;;8.32;53.61
86206;BME280;76857;48.140;11.594;2024-03-08T13:11:23;95172.59;;;8.36;52.82
86206;BME280;76857;48.140;11.594;2024-03-08T13:13:49;95174.44;;;8.36;52.74
86206;BME280;76857;48.140;11.594;2024-03-08T13:16:15;95168.19;;;8.42;52.61
86206;BME280;76857;48.140;11.594;2024-03-08T13:18:41;95171.16;;;8.46;52.43
86206;BME280;76857;48.140;11.594;2024-03-08T13:21:10;95178.88;;;8.30;52.53
86206;BME280;76857;48.140;11.594;2024-03-08T13:23:37;95163.59;;;8.26;52.32
86206;BME280;76857;48.140;11.594;2024-03-08T13:26:09;95160.28;;;8.19;52.64
86206;BME280;76857;48.140;11.594;2024-03-08T13:28:50;95155.94;;;8.29;52.05
86206;BME280;76857;48.140;11.594;2024-03-08T13:31:19;95153.09;;;8.31;52.14
86206;BME280;76857;48.140;11.594;2024-03-08T13:33:45;95159.91;;;8.27;52.91
86206;BME280;76857;48.140;11.594;2024-03-08T13:36:12;95155.75;;;8.31;52.71
86206;BME280;76857;48.140;11.594;2024-03-08T13:38:45;95158.06;;;8.27;52.29
86206;BME280;76857;48.140;11.594;2024-03-08T13:41:12;95150.91;;;8.28;52.03
86206;BME280;76857;48.140;11.594;2024-03-08T13:43:42;95145.94;;;8.31;51.87
86206;BME280;76857;48.140;11.594;2024-03-08T13:46:08;95141.75;;;8.35;52.19
86206;BME280;76857;48.140;11.594;2024-03-08T13:48:35;95139.81;;;8.19;51.65
86206;BME280;76857;48.140;11.594;2024-03-08T13:51:03;95138.31;;;8.23;51.38
86206;BME280;76857;48.140;11.594;2024-03-08T13:53:30;95121.66;;;8.28;51.72
86206;BME280;76857;48.140;11.594;2024-03-08T13:55:55;95113.44;;;8.29;51.06
86206;BME280;76857;48.140;11.594;2024-03-08T13:58:21;95127.22;;;8.26;51.04
86206;BME280;76857;48.140;11.594;2024-03-08T14:00:47;95124.31;;;8.28;51.51
86206;BME280;76857;48.140;11.594;2024-03-08T14:03:13;95124.91;;;8.30;51.47
86206;BME280;76857;48.140;11.594;2024-03-08T14:05:39;95115.75;;;8.26;51.22
86206;BME280;76857;48.140;11.594;2024-03-08T14:08:06;95121.81;;;8.21;51.48
86206;BME280;76857;48.140;11.594;2024-03-08T14:10:33;95116.94;;;8.18;51.90
86206;BME280;76857;48.140;11.594;2024-03-08T14:12:59;95110.13;;;8.22;51.43
86206;BME280;76857;48.140;11.594;2024-03-08T14:15:26;95104.00;;;8.22;50.92
86206;BME280;76857;48.140;11.594;2024-03-08T14:17:55;95103.28;;;8.26;51.44
86206;BME280;76857;48.140;11.594;2024-03-08T14:20:21;95097.41;;;8.24;51.34
86206;BME280;76857;48.140;11.594;2024-03-08T14:22:56;95090.38;;;8.18;50.92
86206;BME280;76857;48.140;11.594;2024-03-08T14:25:22;95096.59;;;8.24;51.44
86206;BME280;76857;48.140;11.594;2024-03-08T14:27:53;95087.97;;;8.17;51.36
86206;BME280;76857;48.140;11.594;2024-03-08T14:30:19;95084.75;;;8.15;51.97
86206;BME280;76857;48.140;11.594;2024-03-08T14:33:07;95080.00;;;8.17;52.06
86206;BME280;76857;48.140;11.594;2024-03-08T14:35:35;95083.56;;;8.22;51.88
86206;BME280;76857;48.140;11.594;2024-03-08T14:38:00;95076.84;;;8.20;51.63
86206;BME280;76857;48.140;11.594;2024-03-08T14:40:26;95082.66;;;8.17;51.35
86206;BME280;76857;48.140;11.594;2024-03-08T14:42:52;95079.19;;;8.16;51.38
86206;BME280;76857;48.140;11.594;2024-03-08T14:45:17;95069.84;;;8.14;51.72
86206;BME280;76857;48.140;11.594;2024-03-08T14:47:47;95069.03;;;8.13;51.00
86206;BME280;76857;48.140;11.594;2024-03-08T14:50:17;95071.13;;;8.11;50.84
86206;BME280;76857;48.140;11.594;2024-03-08T14:52:43;95076.22;;;8.13;50.98
86206;BME280;76857;48.140;11.594;2024-03-08T14:55:09;95070.41;;;8.16;51.08
86206;BME280;76857;48.140;11.594;2024-03-08T14:57:39;95070.66;;;8.14;51.58
86206;BME280;76857;48.140;11.594;2024-03-08T15:00:05;95061.63;;;8.15;50.77
86206;BME280;76857;48.140;11.594;2024-03-08T15:02:31;95065.34;;;8.14;51.55
86206;BME280;76857;48.140;11.594;2024-03-08T15:05:03;95060.59;;;8.16;51.25
86206;BME280;76857;48.140;11.594;2024-03-08T15:07:34;95047.22;;;8.11;51.88
86206;BME280;76857;48.140;11.594;2024-03-08T15:10:00;95046.09;;;8.07;52.21
86206;BME280;76857;48.140;11.594;2024-03-08T15:12:25;95051.16;;;8.09;52.25
86206;BME280;76857;48.140;11.594;2024-03-08T15:14:52;95053.50;;;8.05;51.78
86206;BME280;76857;48.140;11.594;2024-03-08T15:17:18;95052.59;;;7.99;51.83
86206;BME280;76857;48.140;11.594;2024-03-08T15:19:49;95046.47;;;7.99;51.91
86206;BME280;76857;48.140;11.594;2024-03-08T15:22:15;95047.22;;;8.11;52.53
86206;BME280;76857;48.140;11.594;2024-03-08T15:24:43;95046.72;;;8.14;51.84
86206;BME280;76857;48.140;11.594;2024-03-08T15:27:09;95047.31;;;8.16;51.75
86206;BME280;76857;48.140;11.594;2024-03-08T15:29:35;95040.28;;;8.10;51.94
86206;BME280;76857;48.140;11.594;2024-03-08T15:32:01;95034.75;;;8.12;52.18
86206;BME280;76857;48.140;11.594;2024-03-08T15:34:28;95032.63;;;8.14;52.16
86206;BME280;76857;48.140;11.594;2024-03-08T15:36:53;95033.59;;;8.08;51.61
86206;BME280;76857;48.140;11.594;2024-03-08T15:39:19;95031.19;;;8.06;51.70
86206;BME280;76857;48.140;11.594;2024-03-08T15:41:48;95027.66;;;8.01;51.58
86206;BME280;76857;48.140;11.594;2024-03-08T15:44:14;95030.84;;;8.03;51.82
86206;BME280;76857;48.140;11.594;2024-03-08T15:46:41;95024.50;;;8.04;51.97
86206;BME280;76857;48.140;11.594;2024-03-08T15:49:06;95027.66;;;8.01;52.04
86206;BME280;76857;48.140;11.594;2024-03-08T15:51:32;95027.88;;;7.99;52.97
86206;BME280;76857;48.140;11.594;2024-03-08T15:53:58;95023.59;;;7.98;52.29
86206;BME280;76857;48.140;11.594;2024-03-08T15:56:24;95029.50;;;8.00;51.95
86206;BME280;76857;48.140;11.594;2024-03-08T15:58:51;95034.00;;;7.99;52.21
86206;BME280;76857;48.140;11.594;2024-03-08T16:01:17;95035.28;;;7.97;52.42
86206;BME280;76857;48.140;11.594;2024-03-08T16:03:44;95029.28;;;8.02;51.99
86206;BME280;76857;48.140;11.594;2024-03-08T16:06:19;95045.09;;;7.96;50.75
86206;BME280;76857;48.140;11.594;2024-03-08T16:08:50;95025.38;;;7.92;51.37
86206;BME280;76857;48.140;11.594;2024-03-08T16:11:19;95032.31;;;7.93;51.89
86206;BME280;76857;48.140;11.594;2024-03-08T16:13:46;95021.81;;;7.87;52.12
86206;BME280;76857;48.140;11.594;2024-03-08T16:16:12;95029.06;;;7.91;52.41
86206;BME280;76857;48.140;11.594;2024-03-08T16:18:37;95017.41;;;7.92;52.34
86206;BME280;76857;48.140;11.594;2024-03-08T16:21:03;95014.13;;;7.85;52.04
86206;BME280;76857;48.140;11.594;2024-03-08T16:23:29;95011.81;;;7.77;52.61
86206;BME280;76857;48.140;11.594;2024-03-08T16:25:58;95014.47;;;7.77;52.84
86206;BME280;76857;48.140;11.594;2024-03-08T16:28:24;95014.25;;;7.79;52.92
86206;BME280;76857;48.140;11.594;2024-03-08T16:30:53;95010.38;;;7.86;53.09
86206;BME280;76857;48.140;11.594;2024-03-08T16:33:20;95015.63;;;7.81;52.78
86206;BME280;76857;48.140;11.594;2024-03-08T16:35:47;94991.06;;;7.74;53.79
86206;BME280;76857;48.140;11.594;2024-03-08T16:38:13;95005.03;;;7.70;54.21
86206;BME280;76857;48.140;11.594;2024-03-08T16:40:44;95002.28;;;7.65;54.72
86206;BME280;76857;48.140;11.594;2024-03-08T16:43:09;94996.25;;;7.52;54.83
86206;BME280;76857;48.140;11.594;2024-03-08T16:45:40;95003.88;;;7.49;55.19
86206;BME280;76857;48.140;11.594;2024-03-08T16:48:06;95006.19;;;7.45;55.56
86206;BME280;76857;48.140;11.594;2024-03-08T16:50:32;95003.91;;;7.37;55.83
86206;BME280;76857;48.140;11.594;2024-03-08T16:52:59;94994.81;;;7.33;56.23
86206;BME280;76857;48.140;11.594;2024-03-08T16:55:25;94988.91;;;7.31;56.09
86206;BME280;76857;48.140;11.594;2024-03-08T16:57:50;94990.44;;;7.27;56.90
86206;BME280;76857;48.140;11.594;2024-03-08T17:00:18;94977.41;;;7.26;56.56
86206;BME280;76857;48.140;11.594;2024-03-08T17:02:49;94978.69;;;7.23;56.72
86206;BME280;76857;48.140;11.594;2024-03-08T17:05:15;94975.13;;;7.18;57.28
86206;BME280;76857;48.140;11.594;2024-03-08T17:07:48;94972.16;;;7.14;57.48
86206;BME280;76857;48.140;11.594;2024-03-08T17:10:19;94970.44;;;7.08;58.16
86206;BME280;76857;48.140;11.594;2024-03-08T17:12:46;94967.13;;;7.01;58.38
86206;BME280;76857;48.140;11.594;2024-03-08T17:15:15;94968.38;;;6.98;58.74
86206;BME280;76857;48.140;11.594;2024-03-08T17:17:43;94977.94;;;6.99;58.54
86206;BME280;76857;48.140;11.594;2024-03-08T17:20:12;94974.47;;;6.99;59.08
86206;BME280;76857;48.140;11.594;2024-03-08T17:22:43;94967.72;;;6.91;59.29
86206;BME280;76857;48.140;11.594;2024-03-08T17:25:09;94966.81;;;6.86;59.75
86206;BME280;76857;48.140;11.594;2024-03-08T17:27:42;94969.34;;;6.81;60.00
86206;BME280;76857;48.140;11.594;2024-03-08T17:30:09;94971.66;;;6.77;60.28
86206;BME280;76857;48.140;11.594;2024-03-08T17:32:48;94965.22;;;6.73;60.51
86206;BME280;76857;48.140;11.594;2024-03-08T17:35:15;94972.84;;;6.69;60.73
86206;BME280;76857;48.140;11.594;2024-03-08T17:37:47;94966.72;;;6.69;61.17
86206;BME280;76857;48.140;11.594;2024-03-08T17:40:16;94959.69;;;6.63;61.53
86206;BME280;76857;48.140;11.594;2024-03-08T17:42:50;94963.28;;;6.57;61.67
86206;BME280;76857;48.140;11.594;2024-03-08T17:45:18;94962.69;;;6.55;62.02
86206;BME280;76857;48.140;11.594;2024-03-08T17:47:44;94961.22;;;6.47;62.19
86206;BME280;76857;48.140;11.594;2024-03-08T17:50:11;94963.50;;;6.44;62.56
86206;BME280;76857;48.140;11.594;2024-03-08T17:52:40;94962.72;;;6.43;62.84
86206;BME280;76857;48.140;11.594;2024-03-08T17:55:06;94959.16;;;6.38;63.07
86206;BME280;76857;48.140;11.594;2024-03-08T17:57:35;94955.69;;;6.37;62.99
86206;BME280;76857;48.140;11.594;2024-03-08T18:00:02;94959.59;;;6.35;63.32
86206;BME280;76857;48.140;11.594;2024-03-08T18:02:28;94950.94;;;6.27;63.81
86206;BME280;76857;48.140;11.594;2024-03-08T18:04:53;94952.81;;;6.27;63.49
86206;BME280;76857;48.140;11.594;2024-03-08T18:07:20;94941.31;;;6.21;64.23
86206;BME280;76857;48.140;11.594;2024-03-08T18:09:45;94947.25;;;6.17;64.06
86206;BME280;76857;48.140;11.594;2024-03-08T18:12:10;94945.31;;;6.12;64.27
86206;BME280;76857;48.140;11.594;2024-03-08T18:14:36;94951.31;;;6.08;64.69